sensor_id;sensor_type;location;lat;lon;timestamp;P1;durP1;ratioP1;P2;durP2;ratioP2
36747;SDS011;22716;51.556;5.080;2023-06-22T00:00:49;4.20;;;3.15;;
36747;SDS011;22716;51.556;5.080;2023-06-22T00:03:17;4.82;;;3.55;;
36747;SDS011;22716;51.556;5.080;2023-06-22T00:05:45;4.50;;;3.23;;
36747;SDS011;22716;51.556;5.080;2023-06-22T00:08:12;5.43;;;3.60;;
36747;SDS011;22716;51.556;5.080;2023-06-22T00:10:40;6.50;;;4.07;;
36747;SDS011;22716;51.556;5.080;2023-06-22T00:13:09;10.20;;;3.70;;
36747;SDS011;22716;51.556;5.080;2023-06-22T00:15:36;5.68;;;4.10;;
36747;SDS011;22716;51.556;5.080;2023-06-22T00:18:04;5.87;;;3.63;;
36747;SDS011;22716;51.556;5.080;2023-06-22T00:20:32;6.03;;;4.47;;
36747;SDS011;22716;51.556;5.080;2023-06-22T00:23:02;8.07;;;4.83;;
36747;SDS011;22716;51.556;5.080;2023-06-22T00:25:33;8.37;;;4.93;;
36747;SDS011;22716;51.556;5.080;2023-06-22T00:28:01;5.97;;;4.90;;
36747;SDS011;22716;51.556;5.080;2023-06-22T00:30:28;8.02;;;5.07;;
36747;SDS011;22716;51.556;5.080;2023-06-22T00:32:54;8.00;;;4.93;;
36747;SDS011;22716;51.556;5.080;2023-06-22T00:35:21;7.83;;;5.53;;
36747;SDS011;22716;51.556;5.080;2023-06-22T00:37:52;6.83;;;4.97;;
36747;SDS011;22716;51.556;5.080;2023-06-22T00:40:25;7.27;;;5.70;;
36747;SDS011;22716;51.556;5.080;2023-06-22T00:42:53;8.20;;;5.87;;
36747;SDS011;22716;51.556;5.080;2023-06-22T00:45:22;5.05;;;4.40;;
36747;SDS011;22716;51.556;5.080;2023-06-22T00:47:49;7.13;;;5.43;;
36747;SDS011;22716;51.556;5.080;2023-06-22T00:50:18;7.63;;;5.87;;
36747;SDS011;22716;51.556;5.080;2023-06-22T00:52:48;9.90;;;5.63;;
36747;SDS011;22716;51.556;5.080;2023-06-22T00:55:18;7.00;;;4.73;;
36747;SDS011;22716;51.556;5.080;2023-06-22T00:57:46;6.73;;;5.80;;
36747;SDS011;22716;51.556;5.080;2023-06-22T01:00:14;9.35;;;4.95;;
36747;SDS011;22716;51.556;5.080;2023-06-22T01:02:44;7.93;;;5.70;;
36747;SDS011;22716;51.556;5.080;2023-06-22T01:05:12;11.50;;;4.93;;
36747;SDS011;22716;51.556;5.080;2023-06-22T01:07:40;8.43;;;6.13;;
36747;SDS011;22716;51.556;5.080;2023-06-22T01:10:16;8.80;;;5.63;;
36747;SDS011;22716;51.556;5.080;2023-06-22T01:12:51;8.13;;;7.10;;
36747;SDS011;22716;51.556;5.080;2023-06-22T01:15:23;8.93;;;6.30;;
36747;SDS011;22716;51.556;5.080;2023-06-22T01:17:56;6.83;;;5.90;;
36747;SDS011;22716;51.556;5.080;2023-06-22T01:20:24;9.70;;;6.87;;
36747;SDS011;22716;51.556;5.080;2023-06-22T01:22:57;7.13;;;6.00;;
36747;SDS011;22716;51.556;5.080;2023-06-22T01:25:37;8.50;;;6.80;;
36747;SDS011;22716;51.556;5.080;2023-06-22T01:28:17;7.60;;;6.80;;
36747;SDS011;22716;51.556;5.080;2023-06-22T01:30:52;7.80;;;6.77;;
36747;SDS011;22716;51.556;5.080;2023-06-22T01:33:28;10.17;;;6.40;;
36747;SDS011;22716;51.556;5.080;2023-06-22T01:35:58;11.27;;;7.57;;
36747;SDS011;22716;51.556;5.080;2023-06-22T01:38:26;8.87;;;7.47;;
36747;SDS011;22716;51.556;5.080;2023-06-22T01:40:55;8.32;;;7.32;;
36747;SDS011;22716;51.556;5.080;2023-06-22T01:43:24;20.15;;;7.45;;
36747;SDS011;22716;51.556;5.080;2023-06-22T01:45:54;8.10;;;6.67;;
36747;SDS011;22716;51.556;5.080;2023-06-22T01:48:22;9.17;;;7.77;;
36747;SDS011;22716;51.556;5.080;2023-06-22T01:50:51;10.57;;;8.10;;
36747;SDS011;22716;51.556;5.080;2023-06-22T01:53:20;8.83;;;7.67;;
36747;SDS011;22716;51.556;5.080;2023-06-22T01:55:47;9.32;;;7.97;;
36747;SDS011;22716;51.556;5.080;2023-06-22T01:58:14;11.83;;;10.03;;
36747;SDS011;22716;51.556;5.080;2023-06-22T02:00:43;8.95;;;7.40;;
36747;SDS011;22716;51.556;5.080;2023-06-22T02:03:17;7.47;;;6.60;;
36747;SDS011;22716;51.556;5.080;2023-06-22T02:05:47;10.00;;;8.13;;
36747;SDS011;22716;51.556;5.080;2023-06-22T02:08:19;8.83;;;7.80;;
36747;SDS011;22716;51.556;5.080;2023-06-22T02:10:48;10.43;;;9.32;;
36747;SDS011;22716;51.556;5.080;2023-06-22T02:13:18;10.15;;;8.70;;
36747;SDS011;22716;51.556;5.080;2023-06-22T02:15:45;13.43;;;8.47;;
36747;SDS011;22716;51.556;5.080;2023-06-22T02:18:13;9.87;;;8.43;;
36747;SDS011;22716;51.556;5.080;2023-06-22T02:20:41;23.90;;;9.73;;
36747;SDS011;22716;51.556;5.080;2023-06-22T02:23:08;11.13;;;8.25;;
36747;SDS011;22716;51.556;5.080;2023-06-22T02:25:35;9.93;;;8.88;;
36747;SDS011;22716;51.556;5.080;2023-06-22T02:28:02;10.53;;;8.30;;
36747;SDS011;22716;51.556;5.080;2023-06-22T02:30:29;10.15;;;8.85;;
36747;SDS011;22716;51.556;5.080;2023-06-22T02:32:56;10.77;;;8.57;;
36747;SDS011;22716;51.556;5.080;2023-06-22T02:35:25;10.43;;;8.83;;
36747;SDS011;22716;51.556;5.080;2023-06-22T02:37:53;13.97;;;9.57;;
36747;SDS011;22716;51.556;5.080;2023-06-22T02:40:20;10.80;;;8.70;;
36747;SDS011;22716;51.556;5.080;2023-06-22T02:42:47;11.27;;;9.43;;
36747;SDS011;22716;51.556;5.080;2023-06-22T02:45:14;10.82;;;9.70;;
36747;SDS011;22716;51.556;5.080;2023-06-22T02:47:40;11.32;;;9.73;;
36747;SDS011;22716;51.556;5.080;2023-06-22T02:50:08;14.93;;;9.83;;
36747;SDS011;22716;51.556;5.080;2023-06-22T02:52:35;16.17;;;9.53;;
36747;SDS011;22716;51.556;5.080;2023-06-22T02:55:05;17.42;;;9.85;;
36747;SDS011;22716;51.556;5.080;2023-06-22T02:57:33;11.60;;;9.90;;
36747;SDS011;22716;51.556;5.080;2023-06-22T03:00:02;11.00;;;9.73;;
36747;SDS011;22716;51.556;5.080;2023-06-22T03:02:38;11.27;;;10.07;;
36747;SDS011;22716;51.556;5.080;2023-06-22T03:05:05;11.83;;;9.90;;
36747;SDS011;22716;51.556;5.080;2023-06-22T03:07:32;13.93;;;9.70;;
36747;SDS011;22716;51.556;5.080;2023-06-22T03:09:59;11.47;;;9.90;;
36747;SDS011;22716;51.556;5.080;2023-06-22T03:12:27;14.67;;;11.03;;
36747;SDS011;22716;51.556;5.080;2023-06-22T03:14:54;13.80;;;11.00;;
36747;SDS011;22716;51.556;5.080;2023-06-22T03:17:20;12.38;;;9.85;;
36747;SDS011;22716;51.556;5.080;2023-06-22T03:19:47;14.27;;;10.53;;
36747;SDS011;22716;51.556;5.080;2023-06-22T03:22:14;13.13;;;10.77;;
36747;SDS011;22716;51.556;5.080;2023-06-22T03:24:41;17.65;;;11.35;;
36747;SDS011;22716;51.556;5.080;2023-06-22T03:27:07;14.40;;;10.43;;
36747;SDS011;22716;51.556;5.080;2023-06-22T03:29:35;14.87;;;9.73;;
36747;SDS011;22716;51.556;5.080;2023-06-22T03:32:02;12.70;;;10.60;;
36747;SDS011;22716;51.556;5.080;2023-06-22T03:34:31;12.83;;;10.67;;
36747;SDS011;22716;51.556;5.080;2023-06-22T03:36:59;11.57;;;9.38;;
36747;SDS011;22716;51.556;5.080;2023-06-22T03:39:26;13.02;;;10.23;;
36747;SDS011;22716;51.556;5.080;2023-06-22T03:41:53;13.30;;;11.13;;
36747;SDS011;22716;51.556;5.080;2023-06-22T03:44:20;10.65;;;9.02;;
36747;SDS011;22716;51.556;5.080;2023-06-22T03:46:48;12.25;;;11.00;;
36747;SDS011;22716;51.556;5.080;2023-06-22T03:49:15;14.73;;;10.80;;
36747;SDS011;22716;51.556;5.080;2023-06-22T03:51:42;11.93;;;9.87;;
36747;SDS011;22716;51.556;5.080;2023-06-22T03:54:08;15.83;;;9.57;;
36747;SDS011;22716;51.556;5.080;2023-06-22T03:56:35;12.07;;;10.52;;
36747;SDS011;22716;51.556;5.080;2023-06-22T03:59:02;11.37;;;9.63;;
36747;SDS011;22716;51.556;5.080;2023-06-22T04:01:29;12.27;;;10.07;;
36747;SDS011;22716;51.556;5.080;2023-06-22T04:03:56;12.87;;;9.50;;
36747;SDS011;22716;51.556;5.080;2023-06-22T04:06:23;15.52;;;9.43;;
36747;SDS011;22716;51.556;5.080;2023-06-22T04:08:50;14.77;;;10.33;;
36747;SDS011;22716;51.556;5.080;2023-06-22T04:11:17;11.35;;;10.13;;
36747;SDS011;22716;51.556;5.080;2023-06-22T04:13:44;13.60;;;9.60;;
36747;SDS011;22716;51.556;5.080;2023-06-22T04:16:11;14.77;;;9.47;;
36747;SDS011;22716;51.556;5.080;2023-06-22T04:18:37;10.87;;;9.37;;
36747;SDS011;22716;51.556;5.080;2023-06-22T04:21:05;11.07;;;8.40;;
36747;SDS011;22716;51.556;5.080;2023-06-22T04:23:32;12.68;;;9.45;;
36747;SDS011;22716;51.556;5.080;2023-06-22T04:25:59;13.90;;;9.82;;
36747;SDS011;22716;51.556;5.080;2023-06-22T04:28:26;13.88;;;9.77;;
36747;SDS011;22716;51.556;5.080;2023-06-22T04:30:53;12.90;;;9.63;;
36747;SDS011;22716;51.556;5.080;2023-06-22T04:33:23;12.90;;;9.93;;
36747;SDS011;22716;51.556;5.080;2023-06-22T04:35:50;11.73;;;10.07;;
36747;SDS011;22716;51.556;5.080;2023-06-22T04:38:18;10.03;;;8.93;;
36747;SDS011;22716;51.556;5.080;2023-06-22T04:40:46;11.20;;;9.32;;
36747;SDS011;22716;51.556;5.080;2023-06-22T04:43:13;14.05;;;9.82;;
36747;SDS011;22716;51.556;5.080;2023-06-22T04:45:40;10.60;;;8.52;;
36747;SDS011;22716;51.556;5.080;2023-06-22T04:48:07;14.13;;;10.30;;
36747;SDS011;22716;51.556;5.080;2023-06-22T04:50:35;11.97;;;10.60;;
36747;SDS011;22716;51.556;5.080;2023-06-22T04:53:03;11.65;;;9.25;;
36747;SDS011;22716;51.556;5.080;2023-06-22T04:55:32;10.47;;;8.77;;
36747;SDS011;22716;51.556;5.080;2023-06-22T04:57:59;10.40;;;8.20;;
36747;SDS011;22716;51.556;5.080;2023-06-22T05:00:30;13.82;;;8.25;;
36747;SDS011;22716;51.556;5.080;2023-06-22T05:02:57;12.85;;;10.27;;
36747;SDS011;22716;51.556;5.080;2023-06-22T05:05:24;13.90;;;9.18;;
36747;SDS011;22716;51.556;5.080;2023-06-22T05:07:51;11.37;;;9.97;;
36747;SDS011;22716;51.556;5.080;2023-06-22T05:10:20;12.33;;;9.23;;
36747;SDS011;22716;51.556;5.080;2023-06-22T05:12:48;10.40;;;8.73;;
36747;SDS011;22716;51.556;5.080;2023-06-22T05:15:14;10.48;;;7.70;;
36747;SDS011;22716;51.556;5.080;2023-06-22T05:17:41;10.97;;;8.37;;
36747;SDS011;22716;51.556;5.080;2023-06-22T05:20:09;11.32;;;8.35;;
36747;SDS011;22716;51.556;5.080;2023-06-22T05:22:37;20.03;;;8.67;;
36747;SDS011;22716;51.556;5.080;2023-06-22T05:25:05;10.57;;;8.33;;
36747;SDS011;22716;51.556;5.080;2023-06-22T05:27:34;11.73;;;8.73;;
36747;SDS011;22716;51.556;5.080;2023-06-22T05:30:06;10.10;;;8.00;;
36747;SDS011;22716;51.556;5.080;2023-06-22T05:32:34;21.00;;;7.15;;
36747;SDS011;22716;51.556;5.080;2023-06-22T05:35:01;12.77;;;9.33;;
36747;SDS011;22716;51.556;5.080;2023-06-22T05:37:28;11.07;;;8.60;;
36747;SDS011;22716;51.556;5.080;2023-06-22T05:39:55;10.73;;;8.48;;
36747;SDS011;22716;51.556;5.080;2023-06-22T05:42:22;11.87;;;7.90;;
36747;SDS011;22716;51.556;5.080;2023-06-22T05:44:51;12.17;;;8.87;;
36747;SDS011;22716;51.556;5.080;2023-06-22T05:47:19;10.70;;;7.83;;
36747;SDS011;22716;51.556;5.080;2023-06-22T05:49:48;9.20;;;7.30;;
36747;SDS011;22716;51.556;5.080;2023-06-22T05:52:15;11.23;;;8.53;;
36747;SDS011;22716;51.556;5.080;2023-06-22T05:54:41;12.50;;;8.47;;
36747;SDS011;22716;51.556;5.080;2023-06-22T05:57:08;10.67;;;7.53;;
36747;SDS011;22716;51.556;5.080;2023-06-22T05:59:35;13.10;;;8.17;;
36747;SDS011;22716;51.556;5.080;2023-06-22T06:02:02;10.43;;;8.10;;
36747;SDS011;22716;51.556;5.080;2023-06-22T06:04:31;9.80;;;7.80;;
36747;SDS011;22716;51.556;5.080;2023-06-22T06:06:58;10.03;;;8.50;;
36747;SDS011;22716;51.556;5.080;2023-06-22T06:09:24;9.40;;;8.33;;
36747;SDS011;22716;51.556;5.080;2023-06-22T06:11:51;11.07;;;7.80;;
36747;SDS011;22716;51.556;5.080;2023-06-22T06:14:18;10.90;;;8.40;;
36747;SDS011;22716;51.556;5.080;2023-06-22T06:16:45;15.53;;;9.17;;
36747;SDS011;22716;51.556;5.080;2023-06-22T06:19:12;12.93;;;8.67;;
36747;SDS011;22716;51.556;5.080;2023-06-22T06:21:40;13.77;;;8.52;;
36747;SDS011;22716;51.556;5.080;2023-06-22T06:24:07;12.13;;;8.10;;
36747;SDS011;22716;51.556;5.080;2023-06-22T06:26:33;15.43;;;8.63;;
36747;SDS011;22716;51.556;5.080;2023-06-22T06:29:01;20.37;;;7.13;;
36747;SDS011;22716;51.556;5.080;2023-06-22T06:31:28;13.83;;;6.77;;
36747;SDS011;22716;51.556;5.080;2023-06-22T06:33:55;10.07;;;7.10;;
36747;SDS011;22716;51.556;5.080;2023-06-22T06:36:22;12.30;;;7.73;;
36747;SDS011;22716;51.556;5.080;2023-06-22T06:38:50;9.85;;;7.90;;
36747;SDS011;22716;51.556;5.080;2023-06-22T06:41:17;11.02;;;6.72;;
36747;SDS011;22716;51.556;5.080;2023-06-22T06:43:46;14.40;;;8.48;;
36747;SDS011;22716;51.556;5.080;2023-06-22T06:46:13;11.17;;;7.30;;
36747;SDS011;22716;51.556;5.080;2023-06-22T06:48:40;15.80;;;6.73;;
36747;SDS011;22716;51.556;5.080;2023-06-22T06:51:06;11.83;;;8.03;;
36747;SDS011;22716;51.556;5.080;2023-06-22T06:53:35;14.27;;;8.60;;
36747;SDS011;22716;51.556;5.080;2023-06-22T06:56:04;15.27;;;8.90;;
36747;SDS011;22716;51.556;5.080;2023-06-22T06:58:31;12.50;;;8.33;;
36747;SDS011;22716;51.556;5.080;2023-06-22T07:00:58;12.82;;;8.60;;
36747;SDS011;22716;51.556;5.080;2023-06-22T07:03:25;11.20;;;7.82;;
36747;SDS011;22716;51.556;5.080;2023-06-22T07:05:52;13.20;;;8.40;;
36747;SDS011;22716;51.556;5.080;2023-06-22T07:08:19;10.23;;;8.18;;
36747;SDS011;22716;51.556;5.080;2023-06-22T07:10:46;11.13;;;9.03;;
36747;SDS011;22716;51.556;5.080;2023-06-22T07:13:14;10.13;;;6.95;;
36747;SDS011;22716;51.556;5.080;2023-06-22T07:15:41;15.45;;;8.82;;
36747;SDS011;22716;51.556;5.080;2023-06-22T07:18:08;10.43;;;8.35;;
36747;SDS011;22716;51.556;5.080;2023-06-22T07:20:35;10.97;;;7.53;;
36747;SDS011;22716;51.556;5.080;2023-06-22T07:23:01;12.75;;;8.40;;
36747;SDS011;22716;51.556;5.080;2023-06-22T07:25:28;9.30;;;7.95;;
36747;SDS011;22716;51.556;5.080;2023-06-22T07:27:59;12.02;;;8.57;;
36747;SDS011;22716;51.556;5.080;2023-06-22T07:30:29;9.93;;;6.97;;
36747;SDS011;22716;51.556;5.080;2023-06-22T07:32:56;9.10;;;7.15;;
36747;SDS011;22716;51.556;5.080;2023-06-22T07:35:24;13.52;;;9.20;;
36747;SDS011;22716;51.556;5.080;2023-06-22T07:37:50;7.88;;;7.10;;
36747;SDS011;22716;51.556;5.080;2023-06-22T07:40:17;11.43;;;7.60;;
36747;SDS011;22716;51.556;5.080;2023-06-22T07:42:44;11.40;;;7.47;;
36747;SDS011;22716;51.556;5.080;2023-06-22T07:45:13;8.48;;;7.32;;
36747;SDS011;22716;51.556;5.080;2023-06-22T07:47:42;10.63;;;6.82;;
36747;SDS011;22716;51.556;5.080;2023-06-22T07:50:10;9.18;;;6.68;;
36747;SDS011;22716;51.556;5.080;2023-06-22T07:52:37;11.40;;;9.63;;
36747;SDS011;22716;51.556;5.080;2023-06-22T07:55:04;12.93;;;9.05;;
36747;SDS011;22716;51.556;5.080;2023-06-22T07:57:30;13.27;;;11.25;;
36747;SDS011;22716;51.556;5.080;2023-06-22T08:00:02;15.80;;;10.52;;
36747;SDS011;22716;51.556;5.080;2023-06-22T08:02:36;11.60;;;10.40;;
36747;SDS011;22716;51.556;5.080;2023-06-22T08:05:05;17.92;;;11.45;;
36747;SDS011;22716;51.556;5.080;2023-06-22T08:07:33;17.35;;;11.50;;
36747;SDS011;22716;51.556;5.080;2023-06-22T08:10:00;15.43;;;12.05;;
36747;SDS011;22716;51.556;5.080;2023-06-22T08:12:27;13.05;;;11.15;;
36747;SDS011;22716;51.556;5.080;2023-06-22T08:14:54;13.45;;;10.95;;
36747;SDS011;22716;51.556;5.080;2023-06-22T08:17:22;13.68;;;12.13;;
36747;SDS011;22716;51.556;5.080;2023-06-22T08:19:48;15.35;;;11.00;;
36747;SDS011;22716;51.556;5.080;2023-06-22T08:22:16;15.70;;;10.50;;
36747;SDS011;22716;51.556;5.080;2023-06-22T08:24:44;12.60;;;10.67;;
36747;SDS011;22716;51.556;5.080;2023-06-22T08:27:11;13.07;;;10.93;;
36747;SDS011;22716;51.556;5.080;2023-06-22T08:29:38;13.60;;;11.60;;
36747;SDS011;22716;51.556;5.080;2023-06-22T08:32:08;17.87;;;12.57;;
36747;SDS011;22716;51.556;5.080;2023-06-22T08:34:35;13.67;;;10.83;;
36747;SDS011;22716;51.556;5.080;2023-06-22T08:37:02;14.43;;;12.23;;
36747;SDS011;22716;51.556;5.080;2023-06-22T08:39:33;11.85;;;10.00;;
36747;SDS011;22716;51.556;5.080;2023-06-22T08:41:59;13.93;;;11.20;;
36747;SDS011;22716;51.556;5.080;2023-06-22T08:44:26;13.97;;;11.93;;
36747;SDS011;22716;51.556;5.080;2023-06-22T08:46:53;14.03;;;11.33;;
36747;SDS011;22716;51.556;5.080;2023-06-22T08:49:20;11.87;;;9.77;;
36747;SDS011;22716;51.556;5.080;2023-06-22T08:51:47;13.67;;;10.63;;
36747;SDS011;22716;51.556;5.080;2023-06-22T08:54:18;13.73;;;10.77;;
36747;SDS011;22716;51.556;5.080;2023-06-22T08:56:46;19.83;;;11.73;;
36747;SDS011;22716;51.556;5.080;2023-06-22T08:59:12;19.92;;;12.88;;
36747;SDS011;22716;51.556;5.080;2023-06-22T09:01:39;19.17;;;12.68;;
36747;SDS011;22716;51.556;5.080;2023-06-22T09:04:14;13.87;;;11.33;;
36747;SDS011;22716;51.556;5.080;2023-06-22T09:06:41;14.60;;;12.33;;
36747;SDS011;22716;51.556;5.080;2023-06-22T09:09:12;15.18;;;13.50;;
36747;SDS011;22716;51.556;5.080;2023-06-22T09:11:39;17.48;;;12.85;;
36747;SDS011;22716;51.556;5.080;2023-06-22T09:14:08;16.00;;;13.17;;
36747;SDS011;22716;51.556;5.080;2023-06-22T09:16:35;14.27;;;11.90;;
36747;SDS011;22716;51.556;5.080;2023-06-22T09:19:02;15.00;;;12.18;;
36747;SDS011;22716;51.556;5.080;2023-06-22T09:21:29;12.93;;;11.43;;
36747;SDS011;22716;51.556;5.080;2023-06-22T09:23:56;15.73;;;11.93;;
36747;SDS011;22716;51.556;5.080;2023-06-22T09:26:23;19.57;;;13.23;;
36747;SDS011;22716;51.556;5.080;2023-06-22T09:28:50;21.40;;;14.07;;
36747;SDS011;22716;51.556;5.080;2023-06-22T09:31:18;14.07;;;12.38;;
36747;SDS011;22716;51.556;5.080;2023-06-22T09:33:52;17.37;;;14.07;;
36747;SDS011;22716;51.556;5.080;2023-06-22T09:36:19;21.67;;;14.02;;
36747;SDS011;22716;51.556;5.080;2023-06-22T09:38:47;18.45;;;15.07;;
36747;SDS011;22716;51.556;5.080;2023-06-22T09:41:21;17.58;;;12.90;;
36747;SDS011;22716;51.556;5.080;2023-06-22T09:43:48;15.88;;;12.85;;
36747;SDS011;22716;51.556;5.080;2023-06-22T09:46:18;15.10;;;12.48;;
36747;SDS011;22716;51.556;5.080;2023-06-22T09:48:47;17.57;;;11.17;;
36747;SDS011;22716;51.556;5.080;2023-06-22T09:51:14;21.17;;;12.55;;
36747;SDS011;22716;51.556;5.080;2023-06-22T09:53:40;14.57;;;12.88;;
36747;SDS011;22716;51.556;5.080;2023-06-22T09:56:07;18.70;;;11.07;;
36747;SDS011;22716;51.556;5.080;2023-06-22T09:58:40;16.23;;;12.23;;
36747;SDS011;22716;51.556;5.080;2023-06-22T10:01:07;16.50;;;12.90;;
36747;SDS011;22716;51.556;5.080;2023-06-22T10:03:36;13.97;;;11.40;;
36747;SDS011;22716;51.556;5.080;2023-06-22T10:06:03;15.80;;;12.73;;
36747;SDS011;22716;51.556;5.080;2023-06-22T10:08:30;13.33;;;11.70;;
36747;SDS011;22716;51.556;5.080;2023-06-22T10:10:57;12.88;;;10.23;;
36747;SDS011;22716;51.556;5.080;2023-06-22T10:13:23;19.50;;;11.63;;
36747;SDS011;22716;51.556;5.080;2023-06-22T10:15:50;18.07;;;11.87;;
36747;SDS011;22716;51.556;5.080;2023-06-22T10:18:17;13.87;;;10.93;;
36747;SDS011;22716;51.556;5.080;2023-06-22T10:20:47;15.20;;;11.68;;
36747;SDS011;22716;51.556;5.080;2023-06-22T10:23:15;11.50;;;10.30;;
36747;SDS011;22716;51.556;5.080;2023-06-22T10:25:42;16.80;;;11.93;;
36747;SDS011;22716;51.556;5.080;2023-06-22T10:28:09;12.97;;;9.90;;
36747;SDS011;22716;51.556;5.080;2023-06-22T10:30:36;12.93;;;10.38;;
36747;SDS011;22716;51.556;5.080;2023-06-22T10:33:03;14.07;;;10.67;;
36747;SDS011;22716;51.556;5.080;2023-06-22T10:35:29;15.10;;;11.40;;
36747;SDS011;22716;51.556;5.080;2023-06-22T10:37:57;18.10;;;11.83;;
36747;SDS011;22716;51.556;5.080;2023-06-22T10:40:24;14.07;;;10.97;;
36747;SDS011;22716;51.556;5.080;2023-06-22T10:42:51;14.53;;;11.00;;
36747;SDS011;22716;51.556;5.080;2023-06-22T10:45:17;11.35;;;9.30;;
36747;SDS011;22716;51.556;5.080;2023-06-22T10:47:44;11.43;;;10.27;;
36747;SDS011;22716;51.556;5.080;2023-06-22T10:50:11;17.93;;;10.67;;
36747;SDS011;22716;51.556;5.080;2023-06-22T10:52:38;13.20;;;10.47;;
36747;SDS011;22716;51.556;5.080;2023-06-22T10:55:07;10.73;;;9.65;;
36747;SDS011;22716;51.556;5.080;2023-06-22T10:57:34;15.30;;;11.25;;
36747;SDS011;22716;51.556;5.080;2023-06-22T11:00:02;14.80;;;10.65;;
36747;SDS011;22716;51.556;5.080;2023-06-22T11:02:31;13.15;;;10.60;;
36747;SDS011;22716;51.556;5.080;2023-06-22T11:04:58;12.30;;;10.70;;
36747;SDS011;22716;51.556;5.080;2023-06-22T11:07:26;13.73;;;10.10;;
36747;SDS011;22716;51.556;5.080;2023-06-22T11:09:54;13.57;;;10.53;;
36747;SDS011;22716;51.556;5.080;2023-06-22T11:12:22;16.90;;;11.13;;
36747;SDS011;22716;51.556;5.080;2023-06-22T11:14:48;15.77;;;12.57;;
36747;SDS011;22716;51.556;5.080;2023-06-22T11:17:17;13.70;;;11.88;;
36747;SDS011;22716;51.556;5.080;2023-06-22T11:19:44;14.75;;;10.95;;
36747;SDS011;22716;51.556;5.080;2023-06-22T11:22:11;13.93;;;10.90;;
36747;SDS011;22716;51.556;5.080;2023-06-22T11:24:39;12.33;;;11.10;;
36747;SDS011;22716;51.556;5.080;2023-06-22T11:27:06;18.27;;;12.85;;
36747;SDS011;22716;51.556;5.080;2023-06-22T11:29:34;19.33;;;13.02;;
36747;SDS011;22716;51.556;5.080;2023-06-22T11:32:01;12.32;;;10.60;;
36747;SDS011;22716;51.556;5.080;2023-06-22T11:34:28;15.27;;;12.53;;
36747;SDS011;22716;51.556;5.080;2023-06-22T11:36:55;16.15;;;12.20;;
36747;SDS011;22716;51.556;5.080;2023-06-22T11:39:21;14.95;;;12.35;;
36747;SDS011;22716;51.556;5.080;2023-06-22T11:41:48;18.98;;;12.63;;
36747;SDS011;22716;51.556;5.080;2023-06-22T11:44:15;18.30;;;13.90;;
36747;SDS011;22716;51.556;5.080;2023-06-22T11:46:43;18.40;;;12.93;;
36747;SDS011;22716;51.556;5.080;2023-06-22T11:49:09;14.70;;;12.43;;
36747;SDS011;22716;51.556;5.080;2023-06-22T11:51:36;18.67;;;12.80;;
36747;SDS011;22716;51.556;5.080;2023-06-22T11:54:03;16.73;;;12.07;;
36747;SDS011;22716;51.556;5.080;2023-06-22T11:56:30;22.00;;;14.88;;
36747;SDS011;22716;51.556;5.080;2023-06-22T11:58:57;20.52;;;12.55;;
36747;SDS011;22716;51.556;5.080;2023-06-22T12:01:24;16.17;;;13.27;;
36747;SDS011;22716;51.556;5.080;2023-06-22T12:03:52;14.87;;;13.23;;
36747;SDS011;22716;51.556;5.080;2023-06-22T12:06:18;17.47;;;14.83;;
36747;SDS011;22716;51.556;5.080;2023-06-22T12:08:45;18.77;;;14.80;;
36747;SDS011;22716;51.556;5.080;2023-06-22T12:11:12;18.10;;;15.40;;
36747;SDS011;22716;51.556;5.080;2023-06-22T12:13:38;20.27;;;15.50;;
36747;SDS011;22716;51.556;5.080;2023-06-22T12:16:05;21.90;;;14.37;;
36747;SDS011;22716;51.556;5.080;2023-06-22T12:18:32;14.23;;;12.83;;
36747;SDS011;22716;51.556;5.080;2023-06-22T12:21:00;15.57;;;12.47;;
36747;SDS011;22716;51.556;5.080;2023-06-22T12:23:27;14.40;;;12.07;;
36747;SDS011;22716;51.556;5.080;2023-06-22T12:25:53;17.73;;;12.52;;
36747;SDS011;22716;51.556;5.080;2023-06-22T12:28:20;17.47;;;11.63;;
36747;SDS011;22716;51.556;5.080;2023-06-22T12:30:48;18.02;;;12.00;;
36747;SDS011;22716;51.556;5.080;2023-06-22T12:33:15;14.30;;;11.50;;
36747;SDS011;22716;51.556;5.080;2023-06-22T12:35:43;18.00;;;12.67;;
36747;SDS011;22716;51.556;5.080;2023-06-22T12:38:11;20.35;;;13.80;;
36747;SDS011;22716;51.556;5.080;2023-06-22T12:40:38;20.50;;;15.00;;
36747;SDS011;22716;51.556;5.080;2023-06-22T12:43:05;18.57;;;13.37;;
36747;SDS011;22716;51.556;5.080;2023-06-22T12:45:32;16.40;;;12.63;;
36747;SDS011;22716;51.556;5.080;2023-06-22T12:48:00;20.23;;;12.33;;
36747;SDS011;22716;51.556;5.080;2023-06-22T12:50:27;23.63;;;12.83;;
36747;SDS011;22716;51.556;5.080;2023-06-22T12:52:53;16.67;;;13.90;;
36747;SDS011;22716;51.556;5.080;2023-06-22T12:55:22;19.33;;;14.23;;
36747;SDS011;22716;51.556;5.080;2023-06-22T12:57:48;16.95;;;14.05;;
36747;SDS011;22716;51.556;5.080;2023-06-22T13:00:16;16.17;;;12.77;;
36747;SDS011;22716;51.556;5.080;2023-06-22T13:02:43;14.87;;;12.90;;
36747;SDS011;22716;51.556;5.080;2023-06-22T13:05:10;16.83;;;13.32;;
36747;SDS011;22716;51.556;5.080;2023-06-22T13:07:37;15.77;;;13.53;;
36747;SDS011;22716;51.556;5.080;2023-06-22T13:10:04;13.67;;;12.27;;
36747;SDS011;22716;51.556;5.080;2023-06-22T13:12:33;15.00;;;13.50;;
36747;SDS011;22716;51.556;5.080;2023-06-22T13:15:00;16.90;;;15.17;;
36747;SDS011;22716;51.556;5.080;2023-06-22T13:17:28;19.67;;;14.70;;
36747;SDS011;22716;51.556;5.080;2023-06-22T13:19:55;13.65;;;12.25;;
36747;SDS011;22716;51.556;5.080;2023-06-22T13:22:29;18.03;;;14.47;;
36747;SDS011;22716;51.556;5.080;2023-06-22T13:24:57;16.07;;;13.73;;
36747;SDS011;22716;51.556;5.080;2023-06-22T13:27:25;15.20;;;13.60;;
36747;SDS011;22716;51.556;5.080;2023-06-22T13:29:53;21.03;;;15.30;;
36747;SDS011;22716;51.556;5.080;2023-06-22T13:32:20;19.23;;;15.97;;
36747;SDS011;22716;51.556;5.080;2023-06-22T13:34:46;19.10;;;14.27;;
36747;SDS011;22716;51.556;5.080;2023-06-22T13:37:14;17.13;;;14.93;;
36747;SDS011;22716;51.556;5.080;2023-06-22T13:39:41;14.80;;;13.30;;
36747;SDS011;22716;51.556;5.080;2023-06-22T13:42:08;18.23;;;15.93;;
36747;SDS011;22716;51.556;5.080;2023-06-22T13:44:34;19.13;;;16.43;;
36747;SDS011;22716;51.556;5.080;2023-06-22T13:47:03;18.93;;;15.80;;
36747;SDS011;22716;51.556;5.080;2023-06-22T13:49:31;19.10;;;15.90;;
36747;SDS011;22716;51.556;5.080;2023-06-22T13:51:57;16.80;;;14.13;;
36747;SDS011;22716;51.556;5.080;2023-06-22T13:54:24;17.73;;;15.85;;
36747;SDS011;22716;51.556;5.080;2023-06-22T13:56:51;17.23;;;15.43;;
36747;SDS011;22716;51.556;5.080;2023-06-22T13:59:18;22.00;;;19.73;;
36747;SDS011;22716;51.556;5.080;2023-06-22T14:01:45;17.70;;;15.90;;
36747;SDS011;22716;51.556;5.080;2023-06-22T14:04:13;17.43;;;14.97;;
36747;SDS011;22716;51.556;5.080;2023-06-22T14:06:40;16.83;;;15.10;;
36747;SDS011;22716;51.556;5.080;2023-06-22T14:09:08;19.37;;;15.90;;
36747;SDS011;22716;51.556;5.080;2023-06-22T14:11:34;17.42;;;15.63;;
36747;SDS011;22716;51.556;5.080;2023-06-22T14:14:01;21.30;;;15.73;;
36747;SDS011;22716;51.556;5.080;2023-06-22T14:16:28;16.97;;;15.30;;
36747;SDS011;22716;51.556;5.080;2023-06-22T14:18:54;17.88;;;15.82;;
36747;SDS011;22716;51.556;5.080;2023-06-22T14:21:22;16.95;;;15.15;;
36747;SDS011;22716;51.556;5.080;2023-06-22T14:23:49;17.50;;;15.70;;
36747;SDS011;22716;51.556;5.080;2023-06-22T14:26:16;16.60;;;14.70;;
36747;SDS011;22716;51.556;5.080;2023-06-22T14:28:44;18.20;;;16.23;;
36747;SDS011;22716;51.556;5.080;2023-06-22T14:31:14;17.98;;;16.10;;
36747;SDS011;22716;51.556;5.080;2023-06-22T14:33:40;24.17;;;17.77;;